sensor_id;sensor_type;location;lat;lon;timestamp;P1;durP1;ratioP1;P2;durP2;ratioP2
26191;SDS011;13935;55.672;37.764;2022-11-21T00:00:40;42.97;;;20.05;;
26191;SDS011;13935;55.672;37.764;2022-11-21T00:01:45;42.72;;;21.25;;
26191;SDS011;13935;55.672;37.764;2022-11-21T00:02:49;45.53;;;20.23;;
26191;SDS011;13935;55.672;37.764;2022-11-21T00:03:54;40.85;;;19.15;;
26191;SDS011;13935;55.672;37.764;2022-11-21T00:05:03;39.70;;;21.23;;
26191;SDS011;13935;55.672;37.764;2022-11-21T00:06:05;44.55;;;20.88;;
26191;SDS011;13935;55.672;37.764;2022-11-21T00:07:12;40.60;;;20.75;;
26191;SDS011;13935;55.672;37.764;2022-11-21T00:08:18;46.05;;;21.25;;
26191;SDS011;13935;55.672;37.764;2022-11-21T00:09:23;44.72;;;21.40;;
26191;SDS011;13935;55.672;37.764;2022-11-21T00:10:31;42.10;;;20.23;;
26191;SDS011;13935;55.672;37.764;2022-11-21T00:11:36;44.10;;;20.92;;
26191;SDS011;13935;55.672;37.764;2022-11-21T00:12:41;43.63;;;21.05;;
26191;SDS011;13935;55.672;37.764;2022-11-21T00:13:45;48.70;;;20.35;;
26191;SDS011;13935;55.672;37.764;2022-11-21T00:14:47;49.40;;;21.27;;
26191;SDS011;13935;55.672;37.764;2022-11-21T00:15:55;48.67;;;22.05;;
26191;SDS011;13935;55.672;37.764;2022-11-21T00:17:01;43.40;;;20.90;;
26191;SDS011;13935;55.672;37.764;2022-11-21T00:18:07;49.05;;;22.15;;
26191;SDS011;13935;55.672;37.764;2022-11-21T00:19:15;46.22;;;21.80;;
26191;SDS011;13935;55.672;37.764;2022-11-21T00:20:21;45.60;;;21.70;;
26191;SDS011;13935;55.672;37.764;2022-11-21T00:21:28;44.13;;;21.02;;
26191;SDS011;13935;55.672;37.764;2022-11-21T00:22:34;42.65;;;20.85;;
26191;SDS011;13935;55.672;37.764;2022-11-21T00:23:45;47.13;;;20.95;;
26191;SDS011;13935;55.672;37.764;2022-11-21T00:24:56;45.80;;;21.90;;
26191;SDS011;13935;55.672;37.764;2022-11-21T00:26:04;45.90;;;22.15;;
26191;SDS011;13935;55.672;37.764;2022-11-21T00:27:20;41.58;;;20.30;;
26191;SDS011;13935;55.672;37.764;2022-11-21T00:28:27;48.63;;;21.23;;
26191;SDS011;13935;55.672;37.764;2022-11-21T00:29:31;46.72;;;21.25;;
26191;SDS011;13935;55.672;37.764;2022-11-21T00:30:57;46.55;;;20.70;;
26191;SDS011;13935;55.672;37.764;2022-11-21T00:32:05;46.30;;;19.90;;
26191;SDS011;13935;55.672;37.764;2022-11-21T00:33:08;44.60;;;20.98;;
26191;SDS011;13935;55.672;37.764;2022-11-21T00:34:11;45.08;;;21.70;;
26191;SDS011;13935;55.672;37.764;2022-11-21T00:35:17;46.85;;;22.92;;
26191;SDS011;13935;55.672;37.764;2022-11-21T00:36:21;55.08;;;23.65;;
26191;SDS011;13935;55.672;37.764;2022-11-21T00:37:23;43.42;;;22.30;;
26191;SDS011;13935;55.672;37.764;2022-11-21T00:38:28;49.80;;;22.75;;
26191;SDS011;13935;55.672;37.764;2022-11-21T00:39:31;51.42;;;22.38;;
26191;SDS011;13935;55.672;37.764;2022-11-21T00:40:36;44.00;;;22.67;;
26191;SDS011;13935;55.672;37.764;2022-11-21T00:41:41;48.20;;;22.10;;
26191;SDS011;13935;55.672;37.764;2022-11-21T00:42:47;46.83;;;21.05;;
26191;SDS011;13935;55.672;37.764;2022-11-21T00:43:51;49.00;;;22.65;;
26191;SDS011;13935;55.672;37.764;2022-11-21T00:44:55;45.33;;;22.88;;
26191;SDS011;13935;55.672;37.764;2022-11-21T00:45:58;47.20;;;22.85;;
26191;SDS011;13935;55.672;37.764;2022-11-21T00:47:05;51.30;;;23.05;;
26191;SDS011;13935;55.672;37.764;2022-11-21T00:48:09;46.90;;;23.17;;
26191;SDS011;13935;55.672;37.764;2022-11-21T00:49:13;50.08;;;23.73;;
26191;SDS011;13935;55.672;37.764;2022-11-21T00:50:16;51.17;;;24.05;;
26191;SDS011;13935;55.672;37.764;2022-11-21T00:51:20;50.63;;;23.92;;
26191;SDS011;13935;55.672;37.764;2022-11-21T00:52:25;54.03;;;24.27;;
26191;SDS011;13935;55.672;37.764;2022-11-21T00:53:36;50.88;;;23.52;;
26191;SDS011;13935;55.672;37.764;2022-11-21T00:54:41;50.92;;;23.15;;
26191;SDS011;13935;55.672;37.764;2022-11-21T00:55:45;48.47;;;22.98;;
26191;SDS011;13935;55.672;37.764;2022-11-21T00:56:52;50.33;;;23.63;;
26191;SDS011;13935;55.672;37.764;2022-11-21T00:57:58;51.58;;;23.75;;
26191;SDS011;13935;55.672;37.764;2022-11-21T00:59:03;52.08;;;23.40;;
26191;SDS011;13935;55.672;37.764;2022-11-21T01:00:16;54.03;;;23.85;;
26191;SDS011;13935;55.672;37.764;2022-11-21T01:01:20;51.47;;;23.75;;
26191;SDS011;13935;55.672;37.764;2022-11-21T01:02:27;45.88;;;22.05;;
26191;SDS011;13935;55.672;37.764;2022-11-21T01:03:31;49.80;;;23.67;;
26191;SDS011;13935;55.672;37.764;2022-11-21T01:04:43;50.88;;;23.17;;
26191;SDS011;13935;55.672;37.764;2022-11-21T01:05:47;53.97;;;24.48;;
26191;SDS011;13935;55.672;37.764;2022-11-21T01:07:00;45.05;;;22.27;;
26191;SDS011;13935;55.672;37.764;2022-11-21T01:08:07;48.35;;;23.25;;
26191;SDS011;13935;55.672;37.764;2022-11-21T01:09:12;48.00;;;23.95;;
26191;SDS011;13935;55.672;37.764;2022-11-21T01:10:17;52.00;;;25.17;;
26191;SDS011;13935;55.672;37.764;2022-11-21T01:11:20;52.05;;;25.30;;
26191;SDS011;13935;55.672;37.764;2022-11-21T01:12:25;51.17;;;25.50;;
26191;SDS011;13935;55.672;37.764;2022-11-21T01:13:30;52.33;;;25.10;;
26191;SDS011;13935;55.672;37.764;2022-11-21T01:14:39;50.95;;;25.13;;
26191;SDS011;13935;55.672;37.764;2022-11-21T01:15:50;54.60;;;25.90;;
26191;SDS011;13935;55.672;37.764;2022-11-21T01:17:12;53.47;;;25.50;;
26191;SDS011;13935;55.672;37.764;2022-11-21T01:18:20;57.78;;;25.98;;
26191;SDS011;13935;55.672;37.764;2022-11-21T01:19:28;50.55;;;26.15;;
26191;SDS011;13935;55.672;37.764;2022-11-21T01:21:42;48.03;;;23.80;;
26191;SDS011;13935;55.672;37.764;2022-11-21T01:22:47;56.45;;;25.48;;
26191;SDS011;13935;55.672;37.764;2022-11-21T01:23:51;57.50;;;27.00;;
26191;SDS011;13935;55.672;37.764;2022-11-21T01:25:01;55.30;;;25.08;;
26191;SDS011;13935;55.672;37.764;2022-11-21T01:26:11;60.45;;;28.35;;
26191;SDS011;13935;55.672;37.764;2022-11-21T01:27:17;65.85;;;31.63;;
26191;SDS011;13935;55.672;37.764;2022-11-21T01:28:22;62.67;;;31.02;;
26191;SDS011;13935;55.672;37.764;2022-11-21T01:29:27;62.97;;;31.92;;
26191;SDS011;13935;55.672;37.764;2022-11-21T01:30:30;65.03;;;33.25;;
26191;SDS011;13935;55.672;37.764;2022-11-21T01:31:34;71.07;;;33.53;;
26191;SDS011;13935;55.672;37.764;2022-11-21T01:32:38;69.93;;;37.15;;
26191;SDS011;13935;55.672;37.764;2022-11-21T01:33:44;62.35;;;32.92;;
26191;SDS011;13935;55.672;37.764;2022-11-21T01:34:52;64.28;;;33.63;;
26191;SDS011;13935;55.672;37.764;2022-11-21T01:37:28;63.63;;;32.38;;
26191;SDS011;13935;55.672;37.764;2022-11-21T01:38:36;60.67;;;28.90;;
26191;SDS011;13935;55.672;37.764;2022-11-21T01:39:45;68.60;;;33.75;;
26191;SDS011;13935;55.672;37.764;2022-11-21T01:40:50;69.55;;;32.45;;
26191;SDS011;13935;55.672;37.764;2022-11-21T01:42:04;62.83;;;30.23;;
26191;SDS011;13935;55.672;37.764;2022-11-21T01:43:11;64.50;;;30.85;;
26191;SDS011;13935;55.672;37.764;2022-11-21T01:44:22;60.15;;;29.00;;
26191;SDS011;13935;55.672;37.764;2022-11-21T01:47:10;56.13;;;26.27;;
26191;SDS011;13935;55.672;37.764;2022-11-21T01:48:16;61.67;;;28.55;;
26191;SDS011;13935;55.672;37.764;2022-11-21T01:50:50;57.17;;;25.23;;
26191;SDS011;13935;55.672;37.764;2022-11-21T01:52:10;56.05;;;25.50;;
26191;SDS011;13935;55.672;37.764;2022-11-21T01:53:26;50.83;;;24.13;;
26191;SDS011;13935;55.672;37.764;2022-11-21T01:54:43;56.20;;;24.73;;
26191;SDS011;13935;55.672;37.764;2022-11-21T01:56:02;47.97;;;22.77;;
26191;SDS011;13935;55.672;37.764;2022-11-21T01:58:20;54.13;;;24.08;;
26191;SDS011;13935;55.672;37.764;2022-11-21T02:00:12;52.00;;;22.23;;
26191;SDS011;13935;55.672;37.764;2022-11-21T02:01:02;57.58;;;23.67;;
26191;SDS011;13935;55.672;37.764;2022-11-21T02:02:15;48.63;;;20.90;;
26191;SDS011;13935;55.672;37.764;2022-11-21T02:03:24;44.67;;;19.58;;
26191;SDS011;13935;55.672;37.764;2022-11-21T02:05:37;47.30;;;20.52;;
26191;SDS011;13935;55.672;37.764;2022-11-21T02:06:44;45.03;;;21.38;;
26191;SDS011;13935;55.672;37.764;2022-11-21T02:08:01;45.55;;;20.52;;
26191;SDS011;13935;55.672;37.764;2022-11-21T02:09:15;44.72;;;21.02;;
26191;SDS011;13935;55.672;37.764;2022-11-21T02:10:23;46.25;;;21.08;;
26191;SDS011;13935;55.672;37.764;2022-11-21T02:11:36;49.05;;;20.15;;
26191;SDS011;13935;55.672;37.764;2022-11-21T02:12:48;47.95;;;21.25;;
26191;SDS011;13935;55.672;37.764;2022-11-21T02:13:58;44.20;;;20.65;;
26191;SDS011;13935;55.672;37.764;2022-11-21T02:15:06;47.53;;;20.25;;
26191;SDS011;13935;55.672;37.764;2022-11-21T02:16:14;47.40;;;21.13;;
26191;SDS011;13935;55.672;37.764;2022-11-21T02:17:37;44.63;;;20.63;;
26191;SDS011;13935;55.672;37.764;2022-11-21T02:18:46;44.65;;;20.25;;
26191;SDS011;13935;55.672;37.764;2022-11-21T02:19:56;48.47;;;22.08;;
26191;SDS011;13935;55.672;37.764;2022-11-21T02:21:12;48.08;;;21.13;;
26191;SDS011;13935;55.672;37.764;2022-11-21T02:24:58;48.72;;;20.77;;
26191;SDS011;13935;55.672;37.764;2022-11-21T02:26:06;51.85;;;22.10;;
26191;SDS011;13935;55.672;37.764;2022-11-21T02:27:25;50.90;;;22.40;;
26191;SDS011;13935;55.672;37.764;2022-11-21T02:28:33;53.28;;;22.63;;
26191;SDS011;13935;55.672;37.764;2022-11-21T02:29:45;50.55;;;22.17;;
26191;SDS011;13935;55.672;37.764;2022-11-21T02:30:53;53.70;;;23.30;;
26191;SDS011;13935;55.672;37.764;2022-11-21T02:32:04;48.85;;;22.17;;
26191;SDS011;13935;55.672;37.764;2022-11-21T02:33:12;52.45;;;22.13;;
26191;SDS011;13935;55.672;37.764;2022-11-21T02:34:16;49.60;;;21.27;;
26191;SDS011;13935;55.672;37.764;2022-11-21T02:35:18;45.92;;;20.20;;
26191;SDS011;13935;55.672;37.764;2022-11-21T02:36:40;43.33;;;18.50;;
26191;SDS011;13935;55.672;37.764;2022-11-21T02:37:58;48.65;;;21.25;;
26191;SDS011;13935;55.672;37.764;2022-11-21T02:39:04;47.42;;;22.77;;
26191;SDS011;13935;55.672;37.764;2022-11-21T02:40:19;43.63;;;18.73;;
26191;SDS011;13935;55.672;37.764;2022-11-21T02:41:47;43.50;;;19.10;;
26191;SDS011;13935;55.672;37.764;2022-11-21T02:43:16;43.47;;;18.60;;
26191;SDS011;13935;55.672;37.764;2022-11-21T02:44:34;45.38;;;18.90;;
26191;SDS011;13935;55.672;37.764;2022-11-21T02:45:45;41.75;;;18.10;;
26191;SDS011;13935;55.672;37.764;2022-11-21T02:46:58;37.70;;;17.42;;
26191;SDS011;13935;55.672;37.764;2022-11-21T02:48:12;39.90;;;17.85;;
26191;SDS011;13935;55.672;37.764;2022-11-21T02:51:02;37.67;;;16.50;;
26191;SDS011;13935;55.672;37.764;2022-11-21T02:52:07;33.33;;;16.58;;
26191;SDS011;13935;55.672;37.764;2022-11-21T02:53:12;38.00;;;18.13;;
26191;SDS011;13935;55.672;37.764;2022-11-21T02:54:17;37.50;;;17.33;;
26191;SDS011;13935;55.672;37.764;2022-11-21T02:55:22;36.08;;;16.98;;
26191;SDS011;13935;55.672;37.764;2022-11-21T02:56:29;35.42;;;17.35;;
26191;SDS011;13935;55.672;37.764;2022-11-21T02:57:38;44.25;;;19.52;;
26191;SDS011;13935;55.672;37.764;2022-11-21T02:58:49;39.42;;;18.42;;
26191;SDS011;13935;55.672;37.764;2022-11-21T03:00:00;44.28;;;19.42;;
26191;SDS011;13935;55.672;37.764;2022-11-21T03:01:13;40.78;;;19.23;;
26191;SDS011;13935;55.672;37.764;2022-11-21T03:02:16;43.13;;;19.65;;
26191;SDS011;13935;55.672;37.764;2022-11-21T03:03:19;45.13;;;19.90;;
26191;SDS011;13935;55.672;37.764;2022-11-21T03:04:24;40.03;;;20.20;;
26191;SDS011;13935;55.672;37.764;2022-11-21T03:05:28;43.92;;;20.40;;
26191;SDS011;13935;55.672;37.764;2022-11-21T03:06:32;45.85;;;20.92;;
26191;SDS011;13935;55.672;37.764;2022-11-21T03:07:45;45.13;;;19.13;;
26191;SDS011;13935;55.672;37.764;2022-11-21T03:08:49;45.05;;;21.92;;
26191;SDS011;13935;55.672;37.764;2022-11-21T03:09:55;42.42;;;19.42;;
26191;SDS011;13935;55.672;37.764;2022-11-21T03:11:03;44.47;;;19.90;;
26191;SDS011;13935;55.672;37.764;2022-11-21T03:12:06;42.97;;;19.25;;
26191;SDS011;13935;55.672;37.764;2022-11-21T03:13:09;41.83;;;18.88;;
26191;SDS011;13935;55.672;37.764;2022-11-21T03:14:14;41.88;;;18.15;;
26191;SDS011;13935;55.672;37.764;2022-11-21T03:15:23;43.83;;;20.10;;
26191;SDS011;13935;55.672;37.764;2022-11-21T03:16:28;44.20;;;19.63;;
26191;SDS011;13935;55.672;37.764;2022-11-21T03:17:35;42.92;;;19.27;;
26191;SDS011;13935;55.672;37.764;2022-11-21T03:18:39;38.53;;;18.17;;
26191;SDS011;13935;55.672;37.764;2022-11-21T03:19:44;38.25;;;18.80;;
26191;SDS011;13935;55.672;37.764;2022-11-21T03:20:49;37.97;;;17.90;;
26191;SDS011;13935;55.672;37.764;2022-11-21T03:21:55;38.92;;;18.33;;
26191;SDS011;13935;55.672;37.764;2022-11-21T03:23:00;43.47;;;18.27;;
26191;SDS011;13935;55.672;37.764;2022-11-21T03:24:03;38.72;;;18.13;;
26191;SDS011;13935;55.672;37.764;2022-11-21T03:25:07;38.95;;;17.98;;
26191;SDS011;13935;55.672;37.764;2022-11-21T03:26:15;36.70;;;17.20;;
26191;SDS011;13935;55.672;37.764;2022-11-21T03:27:19;37.58;;;18.42;;
26191;SDS011;13935;55.672;37.764;2022-11-21T03:28:27;35.20;;;17.00;;
26191;SDS011;13935;55.672;37.764;2022-11-21T03:29:29;36.72;;;16.85;;
26191;SDS011;13935;55.672;37.764;2022-11-21T03:30:32;35.17;;;16.92;;
26191;SDS011;13935;55.672;37.764;2022-11-21T03:31:35;32.33;;;16.05;;
26191;SDS011;13935;55.672;37.764;2022-11-21T03:32:44;32.78;;;16.65;;
26191;SDS011;13935;55.672;37.764;2022-11-21T03:33:48;34.75;;;17.63;;
26191;SDS011;13935;55.672;37.764;2022-11-21T03:34:51;33.92;;;16.70;;
26191;SDS011;13935;55.672;37.764;2022-11-21T03:35:55;33.03;;;17.45;;
26191;SDS011;13935;55.672;37.764;2022-11-21T03:36:57;34.63;;;17.38;;
26191;SDS011;13935;55.672;37.764;2022-11-21T03:38:00;36.33;;;17.08;;
26191;SDS011;13935;55.672;37.764;2022-11-21T03:39:04;35.63;;;17.25;;
26191;SDS011;13935;55.672;37.764;2022-11-21T03:40:08;32.80;;;17.85;;
26191;SDS011;13935;55.672;37.764;2022-11-21T03:41:13;29.23;;;15.95;;
26191;SDS011;13935;55.672;37.764;2022-11-21T03:42:30;35.53;;;17.48;;
26191;SDS011;13935;55.672;37.764;2022-11-21T03:43:32;36.53;;;16.90;;
26191;SDS011;13935;55.672;37.764;2022-11-21T03:44:36;32.90;;;17.23;;
26191;SDS011;13935;55.672;37.764;2022-11-21T03:45:39;34.22;;;17.50;;
26191;SDS011;13935;55.672;37.764;2022-11-21T03:46:44;37.33;;;17.40;;
26191;SDS011;13935;55.672;37.764;2022-11-21T03:47:47;38.97;;;19.17;;
26191;SDS011;13935;55.672;37.764;2022-11-21T03:48:51;34.45;;;18.33;;
26191;SDS011;13935;55.672;37.764;2022-11-21T03:49:56;35.15;;;18.42;;
26191;SDS011;13935;55.672;37.764;2022-11-21T03:50:59;34.80;;;18.15;;
26191;SDS011;13935;55.672;37.764;2022-11-21T03:52:03;35.00;;;18.05;;
26191;SDS011;13935;55.672;37.764;2022-11-21T03:53:06;33.85;;;18.58;;
26191;SDS011;13935;55.672;37.764;2022-11-21T03:54:10;34.17;;;18.33;;
26191;SDS011;13935;55.672;37.764;2022-11-21T03:55:13;36.47;;;18.13;;
26191;SDS011;13935;55.672;37.764;2022-11-21T03:56:19;35.88;;;18.08;;
26191;SDS011;13935;55.672;37.764;2022-11-21T03:57:26;33.95;;;17.65;;
26191;SDS011;13935;55.672;37.764;2022-11-21T03:58:30;32.85;;;18.25;;
26191;SDS011;13935;55.672;37.764;2022-11-21T03:59:37;39.65;;;19.38;;
26191;SDS011;13935;55.672;37.764;2022-11-21T04:00:54;37.30;;;18.25;;
26191;SDS011;13935;55.672;37.764;2022-11-21T04:01:59;33.85;;;18.25;;
26191;SDS011;13935;55.672;37.764;2022-11-21T04:03:08;34.13;;;18.52;;
26191;SDS011;13935;55.672;37.764;2022-11-21T04:04:12;35.22;;;18.60;;
26191;SDS011;13935;55.672;37.764;2022-11-21T04:05:17;37.42;;;17.30;;
26191;SDS011;13935;55.672;37.764;2022-11-21T04:06:23;33.70;;;18.23;;
26191;SDS011;13935;55.672;37.764;2022-11-21T04:07:26;37.72;;;18.95;;
26191;SDS011;13935;55.672;37.764;2022-11-21T04:08:31;36.58;;;18.80;;
26191;SDS011;13935;55.672;37.764;2022-11-21T04:09:34;36.72;;;18.60;;
26191;SDS011;13935;55.672;37.764;2022-11-21T04:10:36;30.58;;;17.17;;
26191;SDS011;13935;55.672;37.764;2022-11-21T04:11:39;35.53;;;16.98;;
26191;SDS011;13935;55.672;37.764;2022-11-21T04:12:42;35.80;;;18.27;;
26191;SDS011;13935;55.672;37.764;2022-11-21T04:13:47;34.00;;;18.00;;
26191;SDS011;13935;55.672;37.764;2022-11-21T04:14:51;36.00;;;18.27;;
26191;SDS011;13935;55.672;37.764;2022-11-21T04:15:56;32.33;;;18.02;;
26191;SDS011;13935;55.672;37.764;2022-11-21T04:17:02;32.30;;;17.63;;
26191;SDS011;13935;55.672;37.764;2022-11-21T04:18:05;37.78;;;18.38;;
26191;SDS011;13935;55.672;37.764;2022-11-21T04:19:07;32.38;;;17.95;;
26191;SDS011;13935;55.672;37.764;2022-11-21T04:20:10;31.77;;;16.98;;
26191;SDS011;13935;55.672;37.764;2022-11-21T04:21:15;36.25;;;17.27;;
26191;SDS011;13935;55.672;37.764;2022-11-21T04:22:18;35.08;;;18.58;;
26191;SDS011;13935;55.672;37.764;2022-11-21T04:23:20;37.78;;;17.73;;
26191;SDS011;13935;55.672;37.764;2022-11-21T04:24:24;38.13;;;19.20;;
26191;SDS011;13935;55.672;37.764;2022-11-21T04:25:29;38.08;;;18.33;;
26191;SDS011;13935;55.672;37.764;2022-11-21T04:26:32;33.83;;;17.45;;
26191;SDS011;13935;55.672;37.764;2022-11-21T04:27:35;35.83;;;18.38;;
26191;SDS011;13935;55.672;37.764;2022-11-21T04:28:43;36.47;;;18.73;;
26191;SDS011;13935;55.672;37.764;2022-11-21T04:29:49;35.70;;;18.30;;
26191;SDS011;13935;55.672;37.764;2022-11-21T04:30:51;34.63;;;19.60;;
26191;SDS011;13935;55.672;37.764;2022-11-21T04:31:58;34.15;;;17.80;;
26191;SDS011;13935;55.672;37.764;2022-11-21T04:33:01;39.80;;;20.85;;
26191;SDS011;13935;55.672;37.764;2022-11-21T04:34:06;38.72;;;20.15;;
26191;SDS011;13935;55.672;37.764;2022-11-21T04:35:12;37.25;;;19.67;;
26191;SDS011;13935;55.672;37.764;2022-11-21T04:36:17;37.00;;;18.38;;
26191;SDS011;13935;55.672;37.764;2022-11-21T04:37:23;37.80;;;19.50;;
26191;SDS011;13935;55.672;37.764;2022-11-21T04:38:26;39.25;;;18.45;;
26191;SDS011;13935;55.672;37.764;2022-11-21T04:39:35;39.08;;;18.67;;
26191;SDS011;13935;55.672;37.764;2022-11-21T04:40:48;34.85;;;17.23;;
26191;SDS011;13935;55.672;37.764;2022-11-21T04:42:00;36.53;;;16.98;;
26191;SDS011;13935;55.672;37.764;2022-11-21T04:43:06;34.75;;;18.45;;
26191;SDS011;13935;55.672;37.764;2022-11-21T04:44:10;34.22;;;17.75;;
26191;SDS011;13935;55.672;37.764;2022-11-21T04:45:17;33.42;;;18.23;;
26191;SDS011;13935;55.672;37.764;2022-11-21T04:46:30;37.38;;;18.77;;
26191;SDS011;13935;55.672;37.764;2022-11-21T04:47:39;36.55;;;17.80;;
26191;SDS011;13935;55.672;37.764;2022-11-21T04:48:47;36.78;;;18.10;;
26191;SDS011;13935;55.672;37.764;2022-11-21T04:49:51;33.95;;;17.83;;
26191;SDS011;13935;55.672;37.764;2022-11-21T04:50:56;38.33;;;18.95;;
26191;SDS011;13935;55.672;37.764;2022-11-21T04:51:59;36.67;;;18.83;;
26191;SDS011;13935;55.672;37.764;2022-11-21T04:53:06;34.97;;;18.00;;
26191;SDS011;13935;55.672;37.764;2022-11-21T04:54:21;36.97;;;18.33;;
26191;SDS011;13935;55.672;37.764;2022-11-21T04:55:25;37.05;;;18.20;;
26191;SDS011;13935;55.672;37.764;2022-11-21T04:56:30;39.20;;;19.73;;
26191;SDS011;13935;55.672;37.764;2022-11-21T04:57:34;37.53;;;19.83;;
26191;SDS011;13935;55.672;37.764;2022-11-21T04:58:43;32.72;;;17.63;;
26191;SDS011;13935;55.672;37.764;2022-11-21T04:59:47;40.10;;;19.17;;
26191;SDS011;13935;55.672;37.764;2022-11-21T05:00:53;34.83;;;19.08;;
26191;SDS011;13935;55.672;37.764;2022-11-21T05:01:56;38.65;;;19.30;;
26191;SDS011;13935;55.672;37.764;2022-11-21T05:03:03;36.25;;;19.33;;
26191;SDS011;13935;55.672;37.764;2022-11-21T05:04:07;38.78;;;19.55;;
26191;SDS011;13935;55.672;37.764;2022-11-21T05:05:13;39.20;;;20.20;;
26191;SDS011;13935;55.672;37.764;2022-11-21T05:06:16;37.50;;;19.15;;
26191;SDS011;13935;55.672;37.764;2022-11-21T05:07:20;39.75;;;20.20;;
26191;SDS011;13935;55.672;37.764;2022-11-21T05:08:27;37.53;;;20.55;;
26191;SDS011;13935;55.672;37.764;2022-11-21T05:09:30;36.67;;;18.88;;
26191;SDS011;13935;55.672;37.764;2022-11-21T05:10:33;42.72;;;19.50;;
26191;SDS011;13935;55.672;37.764;2022-11-21T05:12:01;39.10;;;19.60;;
26191;SDS011;13935;55.672;37.764;2022-11-21T05:13:22;40.50;;;19.40;;
26191;SDS011;13935;55.672;37.764;2022-11-21T05:14:25;39.30;;;20.00;;
26191;SDS011;13935;55.672;37.764;2022-11-21T05:15:29;39.45;;;20.30;;
26191;SDS011;13935;55.672;37.764;2022-11-21T05:16:31;40.85;;;21.90;;
26191;SDS011;13935;55.672;37.764;2022-11-21T05:17:34;38.25;;;19.35;;
26191;SDS011;13935;55.672;37.764;2022-11-21T05:18:37;40.05;;;19.85;;
26191;SDS011;13935;55.672;37.764;2022-11-21T05:19:39;39.08;;;20.58;;
26191;SDS011;13935;55.672;37.764;2022-11-21T05:20:41;38.28;;;19.55;;
26191;SDS011;13935;55.672;37.764;2022-11-21T05:21:47;38.08;;;19.33;;
26191;SDS011;13935;55.672;37.764;2022-11-21T05:22:52;43.78;;;21.83;;
26191;SDS011;13935;55.672;37.764;2022-11-21T05:23:55;40.38;;;20.92;;
26191;SDS011;13935;55.672;37.764;2022-11-21T05:24:58;38.97;;;20.38;;
26191;SDS011;13935;55.672;37.764;2022-11-21T05:26:00;41.05;;;20.63;;
26191;SDS011;13935;55.672;37.764;2022-11-21T05:27:03;41.97;;;20.50;;
26191;SDS011;13935;55.672;37.764;2022-11-21T05:28:08;44.35;;;21.63;;
26191;SDS011;13935;55.672;37.764;2022-11-21T05:29:14;42.60;;;20.88;;
26191;SDS011;13935;55.672;37.764;2022-11-21T05:30:17;44.85;;;21.90;;
26191;SDS011;13935;55.672;37.764;2022-11-21T05:31:19;43.25;;;21.65;;
26191;SDS011;13935;55.672;37.764;2022-11-21T05:32:29;41.00;;;20.83;;
26191;SDS011;13935;55.672;37.764;2022-11-21T05:33:31;44.58;;;21.80;;
26191;SDS011;13935;55.672;37.764;2022-11-21T05:34:36;41.55;;;20.50;;
26191;SDS011;13935;55.672;37.764;2022-11-21T05:35:38;41.50;;;19.58;;
26191;SDS011;13935;55.672;37.764;2022-11-21T05:36:44;42.10;;;20.85;;
26191;SDS011;13935;55.672;37.764;2022-11-21T05:37:46;39.70;;;19.38;;
26191;SDS011;13935;55.672;37.764;2022-11-21T05:38:51;38.35;;;19.13;;
26191;SDS011;13935;55.672;37.764;2022-11-21T05:39:57;38.60;;;19.88;;
26191;SDS011;13935;55.672;37.764;2022-11-21T05:40:59;46.63;;;21.80;;
26191;SDS011;13935;55.672;37.764;2022-11-21T05:42:02;40.13;;;20.10;;
26191;SDS011;13935;55.672;37.764;2022-11-21T05:43:05;41.42;;;21.00;;
26191;SDS011;13935;55.672;37.764;2022-11-21T05:44:31;44.15;;;19.73;;
26191;SDS011;13935;55.672;37.764;2022-11-21T05:45:34;42.80;;;20.77;;
26191;SDS011;13935;55.672;37.764;2022-11-21T05:46:38;48.33;;;21.05;;
26191;SDS011;13935;55.672;37.764;2022-11-21T05:47:42;43.13;;;20.25;;
26191;SDS011;13935;55.672;37.764;2022-11-21T05:48:45;46.58;;;20.58;;
26191;SDS011;13935;55.672;37.764;2022-11-21T05:49:50;45.72;;;21.42;;
26191;SDS011;13935;55.672;37.764;2022-11-21T05:51:03;38.00;;;19.13;;
26191;SDS011;13935;55.672;37.764;2022-11-21T05:52:09;41.10;;;19.58;;
26191;SDS011;13935;55.672;37.764;2022-11-21T05:53:11;46.92;;;20.98;;
26191;SDS011;13935;55.672;37.764;2022-11-21T05:54:17;44.33;;;20.33;;
26191;SDS011;13935;55.672;37.764;2022-11-21T05:55:19;44.90;;;21.30;;
26191;SDS011;13935;55.672;37.764;2022-11-21T05:56:25;45.30;;;21.70;;
26191;SDS011;13935;55.672;37.764;2022-11-21T05:57:37;45.17;;;20.55;;
26191;SDS011;13935;55.672;37.764;2022-11-21T05:58:40;49.13;;;22.02;;
26191;SDS011;13935;55.672;37.764;2022-11-21T05:59:46;43.65;;;20.75;;
26191;SDS011;13935;55.672;37.764;2022-11-21T06:00:49;44.33;;;20.85;;
26191;SDS011;13935;55.672;37.764;2022-11-21T06:02:15;47.75;;;21.10;;
26191;SDS011;13935;55.672;37.764;2022-11-21T06:03:43;40.25;;;18.73;;
26191;SDS011;13935;55.672;37.764;2022-11-21T06:04:57;42.83;;;20.17;;
26191;SDS011;13935;55.672;37.764;2022-11-21T06:06:19;44.60;;;20.25;;
26191;SDS011;13935;55.672;37.764;2022-11-21T06:07:28;40.75;;;20.33;;
26191;SDS011;13935;55.672;37.764;2022-11-21T06:08:41;45.53;;;20.13;;
26191;SDS011;13935;55.672;37.764;2022-11-21T06:09:51;45.70;;;20.95;;
26191;SDS011;13935;55.672;37.764;2022-11-21T06:11:19;39.22;;;19.23;;
26191;SDS011;13935;55.672;37.764;2022-11-21T06:12:27;41.53;;;20.08;;
26191;SDS011;13935;55.672;37.764;2022-11-21T06:13:32;40.45;;;18.73;;
26191;SDS011;13935;55.672;37.764;2022-11-21T06:14:35;40.85;;;19.83;;
26191;SDS011;13935;55.672;37.764;2022-11-21T06:15:39;48.22;;;21.48;;
26191;SDS011;13935;55.672;37.764;2022-11-21T06:16:47;43.20;;;19.33;;
26191;SDS011;13935;55.672;37.764;2022-11-21T06:17:51;39.63;;;19.42;;
26191;SDS011;13935;55.672;37.764;2022-11-21T06:18:55;43.65;;;19.60;;
26191;SDS011;13935;55.672;37.764;2022-11-21T06:19:59;49.15;;;20.77;;
26191;SDS011;13935;55.672;37.764;2022-11-21T06:21:16;44.03;;;20.77;;
26191;SDS011;13935;55.672;37.764;2022-11-21T06:22:22;41.72;;;19.27;;
26191;SDS011;13935;55.672;37.764;2022-11-21T06:23:26;46.55;;;20.08;;
26191;SDS011;13935;55.672;37.764;2022-11-21T06:24:29;43.78;;;19.73;;
26191;SDS011;13935;55.672;37.764;2022-11-21T06:25:32;46.15;;;20.52;;
26191;SDS011;13935;55.672;37.764;2022-11-21T06:26:39;44.65;;;20.48;;
26191;SDS011;13935;55.672;37.764;2022-11-21T06:27:43;47.90;;;20.23;;
26191;SDS011;13935;55.672;37.764;2022-11-21T06:28:48;39.97;;;19.42;;
26191;SDS011;13935;55.672;37.764;2022-11-21T06:29:52;46.72;;;20.58;;
26191;SDS011;13935;55.672;37.764;2022-11-21T06:31:40;42.80;;;19.83;;
26191;SDS011;13935;55.672;37.764;2022-11-21T06:32:24;42.10;;;19.60;;
26191;SDS011;13935;55.672;37.764;2022-11-21T06:33:26;41.92;;;20.45;;
26191;SDS011;13935;55.672;37.764;2022-11-21T06:34:28;46.33;;;20.17;;
26191;SDS011;13935;55.672;37.764;2022-11-21T06:35:31;41.20;;;20.15;;
26191;SDS011;13935;55.672;37.764;2022-11-21T06:36:33;43.75;;;19.83;;
26191;SDS011;13935;55.672;37.764;2022-11-21T06:37:38;40.90;;;18.85;;
26191;SDS011;13935;55.672;37.764;2022-11-21T06:38:40;44.75;;;20.08;;